Time;durP1;ratioP1;P1;durP2;ratioP2;P2;SDS_P1;SDS_P2;PMS_P1;PMS_P2;Temp;Humidity;BMP_temperature;BMP_pressure;BME280_temperature;BME280_humidity;BME280_pressure;Samples;Min_cycle;Max_cycle;Signal;HPM_P1;HPM_P2
2022/05/18 00:00:31;;;;;;;9.25;6.10;;;;;;;;;;4969805;28;20058;-75
2022/05/18 00:03:04;;;;;;;12.10;5.90;;;;;;;;;;4986798;28;20054;-76
2022/05/18 00:05:31;;;;;;;10.00;6.00;;;;;;;;;;4989385;28;20113;-73
2022/05/18 00:07:57;;;;;;;13.50;6.90;;;;;;;;;;4973458;28;20391;-73
2022/05/18 00:10:23;;;;;;;10.75;5.85;;;;;;;;;;4974561;28;20541;-73
2022/05/18 00:12:50;;;;;;;9.35;5.88;;;;;;;;;;4974448;28;20501;-76
2022/05/18 00:15:17;;;;;;;12.15;6.60;;;;;;;;;;4973481;28;20056;-79
2022/05/18 00:17:43;;;;;;;10.90;5.90;;;;;;;;;;4973120;28;20122;-79
2022/05/18 00:20:09;;;;;;;10.15;5.95;;;;;;;;;;4973073;28;20042;-81
2022/05/18 00:22:43;;;;;;;10.32;7.03;;;;;;;;;;4974366;28;20410;-85
2022/05/18 00:25:09;;;;;;;10.32;6.47;;;;;;;;;;4973338;28;20117;-84
2022/05/18 00:27:35;;;;;;;13.02;6.47;;;;;;;;;;4973234;28;20557;-81
2022/05/18 00:30:01;;;;;;;11.75;6.07;;;;;;;;;;4973098;28;20049;-82
2022/05/18 00:32:27;;;;;;;12.25;6.95;;;;;;;;;;4976343;28;20381;-73
2022/05/18 00:34:53;;;;;;;10.45;6.32;;;;;;;;;;4992200;28;20096;-73
2022/05/18 00:37:19;;;;;;;10.70;6.07;;;;;;;;;;4992264;28;20050;-72
2022/05/18 00:39:45;;;;;;;12.57;6.22;;;;;;;;;;4993490;28;20105;-73
2022/05/18 00:42:22;;;;;;;11.18;6.40;;;;;;;;;;4993096;28;20042;-73
2022/05/18 00:44:48;;;;;;;12.32;6.40;;;;;;;;;;4973955;28;20166;-73
2022/05/18 00:47:14;;;;;;;9.50;6.22;;;;;;;;;;4972515;28;20054;-73
2022/05/18 00:49:42;;;;;;;11.90;6.35;;;;;;;;;;4972817;28;20074;-73
2022/05/18 00:52:09;;;;;;;10.18;6.30;;;;;;;;;;4972141;28;20051;-73
2022/05/18 00:54:36;;;;;;;11.13;6.38;;;;;;;;;;4982985;28;20042;-72
2022/05/18 00:57:15;;;;;;;11.52;6.35;;;;;;;;;;4993093;28;20035;-73
2022/05/18 00:59:44;;;;;;;11.10;7.22;;;;;;;;;;4992228;28;20061;-84
2022/05/18 01:02:10;;;;;;;11.20;7.00;;;;;;;;;;4991606;28;20117;-84
2022/05/18 01:04:38;;;;;;;13.75;7.28;;;;;;;;;;4978260;28;20042;-80
2022/05/18 01:07:07;;;;;;;10.07;6.93;;;;;;;;;;4972158;28;20038;-79
2022/05/18 01:09:38;;;;;;;13.77;7.20;;;;;;;;;;4972938;28;20398;-83
2022/05/18 01:12:05;;;;;;;12.60;7.30;;;;;;;;;;4972366;28;20078;-84
2022/05/18 01:14:33;;;;;;;11.75;7.45;;;;;;;;;;4972981;28;20374;-79
2022/05/18 01:16:59;;;;;;;9.77;6.93;;;;;;;;;;4971939;28;20100;-79
2022/05/18 01:19:25;;;;;;;12.48;7.40;;;;;;;;;;4972377;28;20133;-79
2022/05/18 01:22:00;;;;;;;11.18;7.72;;;;;;;;;;4972000;28;20054;-83
2022/05/18 01:24:33;;;;;;;10.77;7.10;;;;;;;;;;4982118;28;20117;-85
2022/05/18 01:27:00;;;;;;;11.38;7.70;;;;;;;;;;4973394;28;20045;-83
2022/05/18 01:29:27;;;;;;;14.55;7.53;;;;;;;;;;4972484;28;20046;-79
2022/05/18 01:31:57;;;;;;;10.77;7.28;;;;;;;;;;4972356;28;20042;-84
2022/05/18 01:34:25;;;;;;;15.02;8.50;;;;;;;;;;4977956;28;20053;-81
2022/05/18 01:36:51;;;;;;;13.43;8.30;;;;;;;;;;4978162;28;20524;-82
2022/05/18 01:39:27;;;;;;;11.55;7.43;;;;;;;;;;4972882;28;20049;-82
2022/05/18 01:41:53;;;;;;;;;;;;;;;;;;4973613;28;20059;-79
2022/05/18 01:44:19;;;;;;;12.77;8.23;;;;;;;;;;4974023;28;20005;-80
2022/05/18 01:46:46;;;;;;;14.68;8.18;;;;;;;;;;4985104;28;20039;-80
2022/05/18 01:49:12;;;;;;;13.73;8.40;;;;;;;;;;4971941;28;20045;-85
2022/05/18 01:51:43;;;;;;;12.70;8.27;;;;;;;;;;4971351;28;20050;-79
2022/05/18 01:54:09;;;;;;;11.35;8.25;;;;;;;;;;4971908;28;20506;-84
2022/05/18 01:56:35;;;;;;;12.45;8.05;;;;;;;;;;4985585;28;20398;-81
2022/05/18 01:59:01;;;;;;;11.68;7.75;;;;;;;;;;4974395;28;20456;-84
2022/05/18 02:01:28;;;;;;;12.02;8.48;;;;;;;;;;4975640;28;20054;-79
2022/05/18 02:03:54;;;;;;;12.85;8.60;;;;;;;;;;4962220;28;20183;-79
2022/05/18 02:06:20;;;;;;;14.15;8.25;;;;;;;;;;4994799;28;20256;-80
2022/05/18 02:08:46;;;;;;;14.60;8.35;;;;;;;;;;4987969;28;20074;-82
2022/05/18 02:11:13;;;;;;;15.70;8.55;;;;;;;;;;4987238;28;20516;-84
2022/05/18 02:13:39;;;;;;;14.57;8.50;;;;;;;;;;4970827;28;20039;-82
2022/05/18 02:16:05;;;;;;;11.57;8.45;;;;;;;;;;4974128;28;20073;-82
2022/05/18 02:18:31;;;;;;;13.15;8.60;;;;;;;;;;4976191;28;20537;-82
2022/05/18 02:20:58;;;;;;;13.00;8.55;;;;;;;;;;4986868;28;20070;-86
2022/05/18 02:23:24;;;;;;;14.30;8.50;;;;;;;;;;4986668;28;20051;-80
2022/05/18 02:25:50;;;;;;;16.15;8.68;;;;;;;;;;4986201;28;20050;-85
2022/05/18 02:28:16;;;;;;;12.18;8.57;;;;;;;;;;4990577;28;20125;-83
2022/05/18 02:30:42;;;;;;;18.95;9.10;;;;;;;;;;4971881;28;20043;-84
2022/05/18 02:33:08;;;;;;;13.00;8.68;;;;;;;;;;4972148;28;20049;-84
2022/05/18 02:35:36;;;;;;;12.23;9.02;;;;;;;;;;4986379;28;20077;-82
2022/05/18 02:38:03;;;;;;;14.90;8.13;;;;;;;;;;4980268;28;20084;-83
2022/05/18 02:40:29;;;;;;;12.52;8.45;;;;;;;;;;4972375;28;20050;-82
2022/05/18 02:42:55;;;;;;;13.38;9.43;;;;;;;;;;4970293;28;20126;-85
2022/05/18 02:45:21;;;;;;;13.88;8.82;;;;;;;;;;4986034;28;20077;-85
2022/05/18 02:47:47;;;;;;;13.88;9.02;;;;;;;;;;4988959;28;20077;-84
2022/05/18 02:50:13;;;;;;;15.13;9.63;;;;;;;;;;4986905;28;20540;-85
2022/05/18 02:52:39;;;;;;;15.13;8.93;;;;;;;;;;4971290;28;20101;-73
2022/05/18 02:57:51;;;;;;;14.88;9.25;;;;;;;;;;5002317;28;20043;-72
2022/05/18 03:00:17;;;;;;;13.27;9.18;;;;;;;;;;4971213;28;20054;-72
2022/05/18 03:02:43;;;;;;;15.00;9.30;;;;;;;;;;4969096;28;20132;-72
2022/05/18 03:05:09;;;;;;;12.27;9.02;;;;;;;;;;4985999;28;20049;-72
2022/05/18 03:07:35;;;;;;;14.80;9.00;;;;;;;;;;4985642;28;20051;-72
2022/05/18 03:10:01;;;;;;;16.90;9.90;;;;;;;;;;4987774;28;20434;-73
2022/05/18 03:12:28;;;;;;;15.07;8.85;;;;;;;;;;4969775;28;20053;-72
2022/05/18 03:14:54;;;;;;;13.65;9.35;;;;;;;;;;4985816;28;20045;-73
2022/05/18 03:17:20;;;;;;;16.90;9.85;;;;;;;;;;4986227;28;20557;-73
2022/05/18 03:19:46;;;;;;;14.18;9.50;;;;;;;;;;4986337;28;20050;-74
2022/05/18 03:24:57;;;;;;;16.58;9.65;;;;;;;;;;5002204;28;20035;-72
2022/05/18 03:27:23;;;;;;;15.18;9.65;;;;;;;;;;4985734;28;20054;-73
2022/05/18 03:29:49;;;;;;;17.92;10.07;;;;;;;;;;5002671;28;20042;-73
2022/05/18 03:32:15;;;;;;;14.98;9.65;;;;;;;;;;5003349;28;20486;-73
2022/05/18 03:34:41;;;;;;;16.92;10.75;;;;;;;;;;4969568;28;20413;-84
2022/05/18 03:37:07;;;;;;;15.82;10.50;;;;;;;;;;4969324;28;20066;-81
2022/05/18 03:39:33;;;;;;;16.15;10.23;;;;;;;;;;4986087;28;20078;-84
2022/05/18 03:41:59;;;;;;;13.57;9.75;;;;;;;;;;4972884;28;20058;-80
2022/05/18 03:44:26;;;;;;;16.98;11.00;;;;;;;;;;4980434;28;20042;-83
2022/05/18 03:46:52;;;;;;;15.45;9.82;;;;;;;;;;5001902;28;20039;-80
2022/05/18 03:49:18;;;;;;;17.13;10.55;;;;;;;;;;4971259;28;20050;-84
2022/05/18 03:51:46;;;;;;;16.17;10.77;;;;;;;;;;4970410;28;20494;-83
2022/05/18 03:54:13;;;;;;;16.80;10.90;;;;;;;;;;4968917;28;20593;-83
2022/05/18 03:56:39;;;;;;;15.32;10.65;;;;;;;;;;4977087;28;20576;-83
2022/05/18 03:59:05;;;;;;;18.10;11.35;;;;;;;;;;5001401;28;20058;-83
2022/05/18 04:01:31;;;;;;;13.80;10.20;;;;;;;;;;4952380;28;20046;-84
2022/05/18 04:03:57;;;;;;;17.05;11.13;;;;;;;;;;5000241;28;20094;-73
2022/05/18 04:06:23;;;;;;;14.90;9.98;;;;;;;;;;4968012;28;20070;-72
2022/05/18 04:08:49;;;;;;;16.73;10.32;;;;;;;;;;4984405;28;20042;-73
2022/05/18 04:11:16;;;;;;;14.23;10.32;;;;;;;;;;4970163;28;20086;-73
2022/05/18 04:13:42;;;;;;;15.30;9.55;;;;;;;;;;4977257;28;20085;-73
2022/05/18 04:16:08;;;;;;;11.82;9.50;;;;;;;;;;4969097;28;20401;-72
2022/05/18 04:18:35;;;;;;;14.60;9.88;;;;;;;;;;4970162;28;20038;-73
2022/05/18 04:21:01;;;;;;;15.80;10.02;;;;;;;;;;4970953;28;20042;-73
2022/05/18 04:23:28;;;;;;;12.77;9.65;;;;;;;;;;4969823;28;20553;-72
2022/05/18 04:25:54;;;;;;;16.85;10.10;;;;;;;;;;4984961;28;20086;-73
2022/05/18 04:28:20;;;;;;;19.20;11.30;;;;;;;;;;5001615;28;20089;-73
2022/05/18 04:30:47;;;;;;;17.23;9.88;;;;;;;;;;5002023;28;20038;-75
2022/05/18 04:33:15;;;;;;;14.88;10.45;;;;;;;;;;4969818;28;20043;-72
2022/05/18 04:35:41;;;;;;;13.45;9.63;;;;;;;;;;4967840;28;20046;-73
2022/05/18 04:38:08;;;;;;;11.77;9.30;;;;;;;;;;4979935;28;20125;-73
2022/05/18 04:40:34;;;;;;;12.68;9.55;;;;;;;;;;4969226;28;20047;-73
2022/05/18 04:43:00;;;;;;;13.90;9.93;;;;;;;;;;4984054;28;20478;-73
2022/05/18 04:45:26;;;;;;;13.63;10.00;;;;;;;;;;4969213;28;20041;-73
2022/05/18 04:47:52;;;;;;;13.80;10.05;;;;;;;;;;4968387;28;20043;-73
2022/05/18 04:50:19;;;;;;;21.30;10.68;;;;;;;;;;4971793;28;20502;-75
2022/05/18 04:52:46;;;;;;;16.48;9.88;;;;;;;;;;4971983;28;20267;-76
2022/05/18 04:55:12;;;;;;;13.02;10.18;;;;;;;;;;5005406;28;20125;-72
2022/05/18 04:57:38;;;;;;;14.85;10.55;;;;;;;;;;4988344;28;20042;-73
2022/05/18 05:00:05;;;;;;;17.80;10.80;;;;;;;;;;5003783;28;20510;-75
2022/05/18 05:02:33;;;;;;;15.48;10.65;;;;;;;;;;4967910;28;20109;-73
2022/05/18 05:04:59;;;;;;;13.65;10.65;;;;;;;;;;4994991;28;20517;-73
2022/05/18 05:07:26;;;;;;;15.23;10.88;;;;;;;;;;5002569;28;20057;-76
2022/05/18 05:09:52;;;;;;;12.30;10.23;;;;;;;;;;5002894;28;20049;-73
2022/05/18 05:12:18;;;;;;;13.48;10.07;;;;;;;;;;4970258;28;20124;-73
2022/05/18 05:14:45;;;;;;;12.32;9.27;;;;;;;;;;4970550;28;20405;-73
2022/05/18 05:17:11;;;;;;;13.38;9.68;;;;;;;;;;4971053;28;20055;-73
2022/05/18 05:19:37;;;;;;;13.85;9.85;;;;;;;;;;5005312;28;20074;-76
2022/05/18 05:22:04;;;;;;;13.35;9.25;;;;;;;;;;4972572;28;20043;-74
2022/05/18 05:24:30;;;;;;;14.90;9.20;;;;;;;;;;4971287;28;20051;-72
2022/05/18 05:26:56;;;;;;;12.02;9.02;;;;;;;;;;4988046;28;20462;-73
2022/05/18 05:29:22;;;;;;;11.68;9.02;;;;;;;;;;4971708;28;20047;-73
2022/05/18 05:31:48;;;;;;;13.10;9.23;;;;;;;;;;5001391;28;20051;-74
2022/05/18 05:34:15;;;;;;;16.67;9.65;;;;;;;;;;4987733;28;20074;-74
2022/05/18 05:36:41;;;;;;;12.63;9.32;;;;;;;;;;5004750;28;20050;-72
2022/05/18 05:39:07;;;;;;;14.23;9.13;;;;;;;;;;4980458;28;20402;-72
2022/05/18 05:41:33;;;;;;;15.73;9.32;;;;;;;;;;5003895;28;20046;-72
2022/05/18 05:43:59;;;;;;;14.15;9.43;;;;;;;;;;4972384;28;20046;-72
2022/05/18 05:46:27;;;;;;;15.00;9.40;;;;;;;;;;4988557;28;20034;-73
2022/05/18 05:48:54;;;;;;;12.88;8.82;;;;;;;;;;4971722;28;20426;-72
2022/05/18 05:51:23;;;;;;;11.85;9.10;;;;;;;;;;4987415;28;20478;-74
2022/05/18 05:53:49;;;;;;;14.60;9.30;;;;;;;;;;5003201;28;20505;-73
2022/05/18 05:56:15;;;;;;;14.07;8.85;;;;;;;;;;4986999;28;20075;-72
2022/05/18 05:58:43;;;;;;;11.75;8.77;;;;;;;;;;4999711;28;20045;-72
2022/05/18 06:01:10;;;;;;;13.27;9.40;;;;;;;;;;4987501;28;20479;-72
2022/05/18 06:03:37;;;;;;;13.27;9.52;;;;;;;;;;4971975;28;20533;-72
2022/05/18 06:06:03;;;;;;;13.35;9.23;;;;;;;;;;4988700;28;20034;-73
2022/05/18 06:08:30;;;;;;;12.20;8.65;;;;;;;;;;4988004;28;20046;-73
2022/05/18 06:10:57;;;;;;;13.82;9.00;;;;;;;;;;4971142;28;20050;-72
2022/05/18 06:13:23;;;;;;;11.63;8.90;;;;;;;;;;4986589;28;20134;-72
2022/05/18 06:15:49;;;;;;;10.88;9.15;;;;;;;;;;4987298;28;20046;-72
2022/05/18 06:18:15;;;;;;;14.30;9.23;;;;;;;;;;4971644;28;20401;-74
2022/05/18 06:20:41;;;;;;;12.93;8.85;;;;;;;;;;4970016;28;20092;-73
2022/05/18 06:23:08;;;;;;;12.70;8.80;;;;;;;;;;4969835;28;20043;-73
2022/05/18 06:25:35;;;;;;;13.35;8.95;;;;;;;;;;4986277;28;20070;-73
2022/05/18 06:28:01;;;;;;;12.02;9.40;;;;;;;;;;4987142;28;20061;-73
2022/05/18 06:30:27;;;;;;;13.30;8.90;;;;;;;;;;4987975;28;20066;-73
2022/05/18 06:32:53;;;;;;;11.07;8.77;;;;;;;;;;5002651;28;20401;-73
2022/05/18 06:35:20;;;;;;;14.30;8.88;;;;;;;;;;4970943;28;20042;-73
2022/05/18 06:37:48;;;;;;;11.85;8.90;;;;;;;;;;4973557;28;20446;-73
2022/05/18 06:40:14;;;;;;;14.63;8.57;;;;;;;;;;4969936;28;20062;-75
2022/05/18 06:42:41;;;;;;;16.73;8.60;;;;;;;;;;4986298;28;20051;-73
2022/05/18 06:45:08;;;;;;;14.93;8.43;;;;;;;;;;4985134;28;20166;-75
2022/05/18 06:47:35;;;;;;;11.60;8.80;;;;;;;;;;4997763;28;20038;-72
2022/05/18 06:50:01;;;;;;;12.32;8.25;;;;;;;;;;4969386;28;20391;-74
2022/05/18 06:52:27;;;;;;;16.10;8.65;;;;;;;;;;4986752;28;20038;-73
2022/05/18 06:54:54;;;;;;;11.90;8.52;;;;;;;;;;4977207;28;20125;-73
2022/05/18 06:57:20;;;;;;;14.00;8.73;;;;;;;;;;4970799;28;20071;-73
2022/05/18 06:59:46;;;;;;;13.23;7.65;;;;;;;;;;4985166;28;20054;-74
2022/05/18 07:02:12;;;;;;;11.82;7.97;;;;;;;;;;5001518;28;20130;-74
2022/05/18 07:04:38;;;;;;;8.73;7.05;;;;;;;;;;4972845;28;20074;-74
2022/05/18 07:07:04;;;;;;;10.77;7.20;;;;;;;;;;4978403;28;20073;-74
2022/05/18 07:09:31;;;;;;;11.90;7.63;;;;;;;;;;4985729;28;20066;-74
2022/05/18 07:11:57;;;;;;;10.02;7.50;;;;;;;;;;4984812;28;20042;-75
2022/05/18 07:14:24;;;;;;;11.32;8.00;;;;;;;;;;4970782;28;20047;-74
2022/05/18 07:16:51;;;;;;;11.85;8.48;;;;;;;;;;4984816;28;20047;-74
2022/05/18 07:19:17;;;;;;;11.13;7.70;;;;;;;;;;4969200;28;20125;-74
2022/05/18 07:21:44;;;;;;;9.32;8.02;;;;;;;;;;4969056;28;20455;-74
2022/05/18 07:24:11;;;;;;;14.50;8.63;;;;;;;;;;4986333;28;20062;-74
2022/05/18 07:26:37;;;;;;;14.95;8.90;;;;;;;;;;4969465;28;20482;-76
2022/05/18 07:29:05;;;;;;;11.95;7.78;;;;;;;;;;4978306;28;20482;-75
2022/05/18 07:32:08;;;;;;;14.98;8.57;;;;;;;;;;4983867;28;20453;-76
2022/05/18 07:34:17;;;;;;;14.60;8.30;;;;;;;;;;5002141;28;20054;-74
2022/05/18 07:36:43;;;;;;;13.85;7.97;;;;;;;;;;4970449;28;20045;-74
2022/05/18 07:39:11;;;;;;;12.07;8.18;;;;;;;;;;4983824;28;20128;-75
2022/05/18 07:41:37;;;;;;;14.07;8.02;;;;;;;;;;4999368;28;20065;-75
2022/05/18 07:44:03;;;;;;;11.15;7.57;;;;;;;;;;4984351;28;20051;-75
2022/05/18 07:46:29;;;;;;;9.90;7.70;;;;;;;;;;4997694;28;20038;-74
2022/05/18 07:48:56;;;;;;;14.80;7.82;;;;;;;;;;4969762;28;20182;-74
2022/05/18 07:51:22;;;;;;;10.52;7.30;;;;;;;;;;4985174;28;20046;-75
2022/05/18 07:53:49;;;;;;;10.50;7.47;;;;;;;;;;4970037;28;20554;-75
2022/05/18 07:56:15;;;;;;;11.45;7.32;;;;;;;;;;5003295;28;20053;-74
2022/05/18 07:58:41;;;;;;;10.88;6.82;;;;;;;;;;4969356;28;20065;-76
2022/05/18 08:01:08;;;;;;;9.60;7.35;;;;;;;;;;4991688;28;20051;-75
2022/05/18 08:03:34;;;;;;;9.38;6.53;;;;;;;;;;4984776;28;20042;-75
2022/05/18 08:06:02;;;;;;;10.38;7.00;;;;;;;;;;4974621;28;20045;-75
2022/05/18 08:08:28;;;;;;;9.38;7.10;;;;;;;;;;4969057;28;20065;-75
2022/05/18 08:16:25;;;;;;;11.88;7.80;;;;;;;;;;5002650;28;20513;-75
2022/05/18 08:18:51;;;;;;;9.50;7.20;;;;;;;;;;4968777;28;20512;-75
2022/05/18 08:21:18;;;;;;;13.25;7.47;;;;;;;;;;4984830;28;20454;-76
2022/05/18 08:23:44;;;;;;;15.55;8.77;;;;;;;;;;4985055;28;20122;-74
2022/05/18 08:26:10;;;;;;;12.82;8.25;;;;;;;;;;5005134;28;20138;-75
2022/05/18 08:28:37;;;;;;;12.63;8.98;;;;;;;;;;4989563;28;20042;-75
2022/05/18 08:31:03;;;;;;;12.70;8.68;;;;;;;;;;4977494;28;20050;-76
2022/05/18 08:33:31;;;;;;;11.63;8.95;;;;;;;;;;4982725;28;20093;-76
2022/05/18 08:35:58;;;;;;;14.82;8.57;;;;;;;;;;5006381;28;20418;-74
2022/05/18 08:38:24;;;;;;;15.32;8.63;;;;;;;;;;4978603;28;20053;-75
2022/05/18 08:41:04;;;;;;;15.10;8.60;;;;;;;;;;4987604;28;20053;-74
2022/05/18 08:43:34;;;;;;;12.20;8.52;;;;;;;;;;4972876;28;20485;-75
2022/05/18 08:46:03;;;;;;;12.48;8.50;;;;;;;;;;4988031;28;20041;-76
2022/05/18 08:48:29;;;;;;;13.38;8.05;;;;;;;;;;4988769;28;20039;-75
2022/05/18 08:51:02;;;;;;;16.30;9.23;;;;;;;;;;4987834;28;20073;-75
2022/05/18 08:53:42;;;;;;;14.35;8.90;;;;;;;;;;5004355;28;20098;-75
2022/05/18 08:56:14;;;;;;;10.32;8.40;;;;;;;;;;4988475;28;20097;-76
2022/05/18 08:58:42;;;;;;;11.88;8.60;;;;;;;;;;4989059;28;20058;-76
2022/05/18 09:01:28;;;;;;;13.73;8.82;;;;;;;;;;4987574;28;20058;-74
2022/05/18 09:03:59;;;;;;;13.68;9.63;;;;;;;;;;4971095;28;20050;-74
2022/05/18 09:06:28;;;;;;;13.35;9.48;;;;;;;;;;4988070;28;20047;-75
2022/05/18 09:11:46;;;;;;;12.18;9.30;;;;;;;;;;4975581;28;20047;-75
2022/05/18 09:14:14;;;;;;;16.45;9.20;;;;;;;;;;4955152;28;20129;-76
2022/05/18 09:16:44;;;;;;;15.48;9.90;;;;;;;;;;4998758;28;20122;-75
2022/05/18 09:19:14;;;;;;;12.55;9.38;;;;;;;;;;4980889;28;20047;-75
2022/05/18 09:21:59;;;;;;;17.60;9.18;;;;;;;;;;4978909;28;20053;-75
2022/05/18 09:24:43;;;;;;;16.35;10.90;;;;;;;;;;4981065;28;20042;-75
2022/05/18 09:27:10;;;;;;;17.38;11.50;;;;;;;;;;4993782;28;20058;-74
2022/05/18 09:29:45;;;;;;;15.93;10.95;;;;;;;;;;5005111;28;20070;-74
2022/05/18 09:32:30;;;;;;;13.32;10.13;;;;;;;;;;4988304;28;20047;-76
2022/05/18 09:34:56;;;;;;;12.75;10.40;;;;;;;;;;4970788;28;20490;-79
2022/05/18 09:37:38;;;;;;;19.13;11.02;;;;;;;;;;5015468;28;20415;-74
2022/05/18 09:40:10;;;;;;;16.65;10.45;;;;;;;;;;4975954;28;20038;-75
2022/05/18 09:42:40;;;;;;;15.68;10.63;;;;;;;;;;5006193;28;20047;-75
2022/05/18 09:45:11;;;;;;;15.13;11.00;;;;;;;;;;5004180;28;20038;-74
2022/05/18 09:47:41;;;;;;;12.85;9.45;;;;;;;;;;4975679;28;20042;-76
2022/05/18 09:50:08;;;;;;;15.38;11.05;;;;;;;;;;4976447;28;20047;-75
2022/05/18 09:52:37;;;;;;;15.10;11.02;;;;;;;;;;5010034;28;20054;-75
2022/05/18 09:55:05;;;;;;;13.38;9.95;;;;;;;;;;4977362;28;20097;-74
2022/05/18 09:57:36;;;;;;;14.48;9.60;;;;;;;;;;4976765;28;20043;-74
2022/05/18 10:00:07;;;;;;;12.60;9.38;;;;;;;;;;4995818;28;20462;-76
2022/05/18 10:08:20;;;;;;;13.65;10.38;;;;;;;;;;4984371;28;20046;-74
2022/05/18 10:10:47;;;;;;;14.55;9.57;;;;;;;;;;4974280;28;20106;-75
2022/05/18 10:13:15;;;;;;;13.80;9.98;;;;;;;;;;4983964;28;20553;-76
2022/05/18 10:15:44;;;;;;;14.15;9.52;;;;;;;;;;4982156;28;20049;-76
2022/05/18 10:18:12;;;;;;;15.02;9.95;;;;;;;;;;4973963;28;20046;-76
2022/05/18 10:20:40;;;;;;;15.80;10.40;;;;;;;;;;4986838;28;20294;-75
2022/05/18 10:23:22;;;;;;;11.15;9.10;;;;;;;;;;4986480;28;20058;-75
2022/05/18 10:25:50;;;;;;;13.85;8.52;;;;;;;;;;5015221;28;20422;-74
2022/05/18 10:28:21;;;;;;;12.15;8.40;;;;;;;;;;4973564;28;20070;-74
2022/05/18 10:31:01;;;;;;;13.65;9.45;;;;;;;;;;4987274;28;20050;-75
2022/05/18 10:33:41;;;;;;;10.18;7.40;;;;;;;;;;4975708;28;20038;-75
2022/05/18 10:36:09;;;;;;;11.02;7.88;;;;;;;;;;4993694;28;20050;-76
2022/05/18 10:38:36;;;;;;;12.25;8.30;;;;;;;;;;4978850;28;20082;-76
2022/05/18 10:41:02;;;;;;;11.38;7.47;;;;;;;;;;4986238;28;20442;-76
2022/05/18 10:43:35;;;;;;;11.90;8.30;;;;;;;;;;5003316;28;20047;-75
2022/05/18 10:46:03;;;;;;;11.65;7.57;;;;;;;;;;5009903;28;20433;-76
2022/05/18 10:48:31;;;;;;;12.40;8.27;;;;;;;;;;4984397;28;20042;-75
2022/05/18 10:51:02;;;;;;;11.50;8.05;;;;;;;;;;5009767;28;20453;-76
2022/05/18 10:53:30;;;;;;;15.25;8.73;;;;;;;;;;5003602;28;20050;-76
2022/05/18 10:55:56;;;;;;;12.50;8.27;;;;;;;;;;4987188;28;20039;-74
2022/05/18 10:58:32;;;;;;;10.85;7.53;;;;;;;;;;4994802;28;20042;-75
2022/05/18 11:01:04;;;;;;;13.45;9.77;;;;;;;;;;4989121;28;20138;-74
2022/05/18 11:03:35;;;;;;;10.52;8.20;;;;;;;;;;5003712;28;20485;-74
2022/05/18 11:06:10;;;;;;;14.55;9.02;;;;;;;;;;4983222;28;20449;-75
2022/05/18 11:08:36;;;;;;;15.10;8.85;;;;;;;;;;4986018;28;21196;-75
2022/05/18 11:11:02;;;;;;;16.25;9.70;;;;;;;;;;4987675;28;20043;-76
2022/05/18 11:13:49;;;;;;;14.10;8.00;;;;;;;;;;4996837;28;20057;-75
2022/05/18 11:16:15;;;;;;;11.95;8.13;;;;;;;;;;4954648;28;20112;-74
2022/05/18 11:18:41;;;;;;;13.73;10.15;;;;;;;;;;4957930;28;20047;-75
2022/05/18 11:21:26;;;;;;;13.20;9.45;;;;;;;;;;5016225;28;20050;-75
2022/05/18 11:23:52;;;;;;;15.00;9.77;;;;;;;;;;4976740;28;20042;-76
2022/05/18 11:26:18;;;;;;;17.00;10.50;;;;;;;;;;4986582;28;20117;-75
2022/05/18 11:29:00;;;;;;;15.98;10.45;;;;;;;;;;5004658;28;20031;-75
2022/05/18 11:31:45;;;;;;;14.43;9.60;;;;;;;;;;5002455;28;20042;-75
2022/05/18 11:34:31;;;;;;;14.40;10.45;;;;;;;;;;4979222;28;20039;-75
2022/05/18 11:37:07;;;;;;;12.88;9.00;;;;;;;;;;4956294;28;20057;-75
2022/05/18 11:39:33;;;;;;;15.63;10.82;;;;;;;;;;5003734;28;20039;-75
2022/05/18 11:42:18;;;;;;;16.48;10.57;;;;;;;;;;4985186;28;20039;-76
2022/05/18 11:44:47;;;;;;;13.98;11.10;;;;;;;;;;4976063;28;20043;-74
2022/05/18 11:47:33;;;;;;;19.00;11.10;;;;;;;;;;5000351;28;20448;-74
2022/05/18 11:50:11;;;;;;;15.23;11.02;;;;;;;;;;4963346;28;20047;-75
2022/05/18 11:52:55;;;;;;;14.02;10.88;;;;;;;;;;4984441;28;20078;-73
2022/05/18 11:55:24;;;;;;;18.23;12.82;;;;;;;;;;5004821;28;20430;-76
2022/05/18 11:57:50;;;;;;;16.95;13.18;;;;;;;;;;5002261;28;20049;-75
2022/05/18 12:00:56;;;;;;;18.90;14.18;;;;;;;;;;4972724;28;20062;-76
2022/05/18 12:03:21;;;;;;;20.08;15.32;;;;;;;;;;4970270;28;20486;-75
2022/05/18 12:06:05;;;;;;;19.27;14.68;;;;;;;;;;4973409;28;20486;-76
2022/05/18 12:08:40;;;;;;;20.08;15.05;;;;;;;;;;5020139;28;20374;-86
2022/05/18 12:11:25;;;;;;;20.48;15.60;;;;;;;;;;4980157;28;20406;-86
2022/05/18 12:14:09;;;;;;;25.98;15.05;;;;;;;;;;5006019;28;20043;-86
2022/05/18 12:16:51;;;;;;;18.52;14.45;;;;;;;;;;5005892;28;20043;-77
2022/05/18 12:19:22;;;;;;;19.30;14.65;;;;;;;;;;4980402;28;20397;-75
2022/05/18 12:22:08;;;;;;;20.95;13.10;;;;;;;;;;4966354;28;20514;-75
2022/05/18 12:24:35;;;;;;;19.55;12.98;;;;;;;;;;5000079;28;20035;-74
2022/05/18 12:27:02;;;;;;;16.10;12.02;;;;;;;;;;4979762;28;20117;-72
2022/05/18 12:29:29;;;;;;;18.08;12.25;;;;;;;;;;4981442;28;20046;-71
2022/05/18 12:31:57;;;;;;;18.85;12.05;;;;;;;;;;4979042;28;20382;-72
2022/05/18 12:34:23;;;;;;;19.38;12.00;;;;;;;;;;4973056;28;20043;-72
2022/05/18 12:37:02;;;;;;;19.60;12.95;;;;;;;;;;4973922;28;20043;-71
2022/05/18 12:39:34;;;;;;;18.80;13.00;;;;;;;;;;4973866;28;20031;-72
2022/05/18 12:42:03;;;;;;;20.50;15.57;;;;;;;;;;4979315;28;20086;-72
2022/05/18 12:44:36;;;;;;;24.63;14.63;;;;;;;;;;4975198;28;20142;-71
2022/05/18 12:47:04;;;;;;;18.05;12.68;;;;;;;;;;4988890;28;20039;-73
2022/05/18 12:49:34;;;;;;;17.33;11.52;;;;;;;;;;4974516;28;20038;-72
2022/05/18 12:52:05;;;;;;;17.60;11.50;;;;;;;;;;4976483;28;20042;-73
2022/05/18 12:54:51;;;;;;;16.80;11.63;;;;;;;;;;4984131;28;20051;-72
2022/05/18 12:57:23;;;;;;;13.20;7.70;;;;;;;;;;4973160;28;20088;-72
2022/05/18 13:00:07;;;;;;;14.93;8.95;;;;;;;;;;4972212;28;20050;-72
2022/05/18 13:02:55;;;;;;;18.83;12.52;;;;;;;;;;5009498;28;20042;-72
2022/05/18 13:05:24;;;;;;;20.00;12.77;;;;;;;;;;4983270;28;20051;-71
2022/05/18 13:07:50;;;;;;;28.10;14.85;;;;;;;;;;5004379;28;20039;-72
2022/05/18 13:10:17;;;;;;;22.38;13.80;;;;;;;;;;5003797;28;20090;-78
2022/05/18 13:12:56;;;;;;;23.23;14.68;;;;;;;;;;4972739;28;20077;-79
2022/05/18 13:15:24;;;;;;;19.98;14.88;;;;;;;;;;4960978;28;20051;-79
2022/05/18 13:18:09;;;;;;;21.00;14.30;;;;;;;;;;4988112;28;20050;-79
2022/05/18 13:20:41;;;;;;;23.38;14.80;;;;;;;;;;4971763;28;20058;-80
2022/05/18 13:23:27;;;;;;;24.23;14.95;;;;;;;;;;4979672;28;20054;-80
2022/05/18 13:25:55;;;;;;;22.30;13.52;;;;;;;;;;4987654;28;20460;-79
2022/05/18 13:28:22;;;;;;;20.20;13.23;;;;;;;;;;5004049;28;20038;-80
2022/05/18 13:30:50;;;;;;;21.40;14.90;;;;;;;;;;5004311;28;20134;-79
2022/05/18 13:33:16;;;;;;;21.00;13.07;;;;;;;;;;4971601;28;20050;-78
2022/05/18 13:35:43;;;;;;;20.48;14.13;;;;;;;;;;4972055;28;20070;-74
2022/05/18 13:38:13;;;;;;;18.02;12.75;;;;;;;;;;4971006;28;20042;-75
2022/05/18 13:40:45;;;;;;;21.48;13.90;;;;;;;;;;5003667;28;20109;-73
2022/05/18 13:43:15;;;;;;;19.75;13.07;;;;;;;;;;5003268;28;20047;-74
2022/05/18 13:45:54;;;;;;;19.90;13.52;;;;;;;;;;4964201;28;20041;-75
2022/05/18 13:48:21;;;;;;;19.52;12.70;;;;;;;;;;4965284;28;20038;-75
2022/05/18 13:50:53;;;;;;;18.83;12.23;;;;;;;;;;4990031;28;20363;-75
2022/05/18 13:53:22;;;;;;;17.65;12.02;;;;;;;;;;5003645;28;20121;-76
2022/05/18 13:55:49;;;;;;;17.10;11.35;;;;;;;;;;5004625;28;20047;-74
2022/05/18 13:58:20;;;;;;;20.02;11.85;;;;;;;;;;5002305;28;20057;-74
2022/05/18 14:00:51;;;;;;;16.17;11.05;;;;;;;;;;4971761;28;20066;-75
2022/05/18 14:03:21;;;;;;;17.45;11.00;;;;;;;;;;4970759;28;20055;-76
2022/05/18 14:05:48;;;;;;;14.27;9.18;;;;;;;;;;4972053;28;20109;-75
2022/05/18 14:08:14;;;;;;;17.50;9.73;;;;;;;;;;4971465;28;20598;-75
2022/05/18 14:10:42;;;;;;;15.18;9.60;;;;;;;;;;4986974;28;20419;-74
2022/05/18 14:13:08;;;;;;;16.38;10.07;;;;;;;;;;4986490;28;20553;-75
2022/05/18 14:15:39;;;;;;;19.30;10.90;;;;;;;;;;4986829;28;20046;-74
2022/05/18 14:18:08;;;;;;;17.17;10.80;;;;;;;;;;5011888;28;20054;-75
2022/05/18 14:20:36;;;;;;;16.10;10.13;;;;;;;;;;4970346;28;20043;-75
2022/05/18 14:23:05;;;;;;;16.30;10.75;;;;;;;;;;4985085;28;20043;-75
2022/05/18 14:25:32;;;;;;;19.23;11.13;;;;;;;;;;4968578;28;20403;-75
2022/05/18 14:28:00;;;;;;;18.08;11.52;;;;;;;;;;4968094;28;20092;-75
2022/05/18 14:30:30;;;;;;;18.63;11.15;;;;;;;;;;4970289;28;20086;-75
2022/05/18 14:32:57;;;;;;;17.30;11.55;;;;;;;;;;4969493;28;20045;-75
2022/05/18 14:35:25;;;;;;;19.77;10.93;;;;;;;;;;4987181;28;20049;-75
2022/05/18 14:37:57;;;;;;;20.00;12.05;;;;;;;;;;5005435;28;20387;-74
2022/05/18 14:40:25;;;;;;;17.77;11.23;;;;;;;;;;4978916;28;20078;-74
2022/05/18 14:42:55;;;;;;;20.45;11.43;;;;;;;;;;4978903;28;20442;-74
2022/05/18 14:45:26;;;;;;;16.75;10.73;;;;;;;;;;5003496;28;20047;-74
2022/05/18 14:48:10;;;;;;;17.13;9.40;;;;;;;;;;5002782;28;20061;-74
2022/05/18 14:50:43;;;;;;;16.02;8.95;;;;;;;;;;5002697;28;20045;-74
2022/05/18 14:53:15;;;;;;;16.77;9.68;;;;;;;;;;4986246;28;20565;-75
2022/05/18 14:55:44;;;;;;;18.65;10.00;;;;;;;;;;4989436;28;20051;-74